Strona główna
METAR-TAF:

METAR-TAF

Lotnisko :

Port lotniczy Hajfa

Hajfa, Izrael

Szerokość geograficzna: 32-48N, Długość geograficzna: 035-02E, wysokość: 8 m

Aktualna obserwacja pogody

Raport powstał 7 godziny i 45 minut temu, godzina 16:50 UTC
Wiatr 7 kt od północno-północny zachód
Temperatura 22°C
Wilgotność 65%
Ciśnienie 1012 hPa
Widzialność 10 km lub więcej
Rozproszone chmury na wysokości 2900 ft

METAR: LLHA 031650Z 33007KT 9999 SCT029 22/15 Q1012

czas: 03:35 (00:35 UTC)

Prognoza

Raport powstał 1 godzina i 25 minut temu, godzina 23:10 UTC
Prognoza ważna od 04 godzina 00 UTC do 04 godzina 24 UTC
Wiatr 4 kt od południowy wschód
Widzialność 10 km lub więcej
Brak chmur poniżej 1500 m i brak chmur cumulonimbus
Stopniowe zmiany
od 04 godzina 07 UTC do 04 godzina 09 UTC
Wiatr 12 kt od północno-północny zachód
Stopniowe zmiany
od 04 godzina 20 UTC do 04 godzina 22 UTC
Wiatr 4 kt z kierunków zmiennych

TAF: LLHA 032310Z 0400/0424 13004KT CAVOK BECMG 0407/0409 34012KT BECMG 0420/0422 VRB04KT TX27/0410Z TN18/0402Z

Obserwacja i prognoza pogody dla ponad 4000 lotnisk (raport METAR i TAF).

Dostępne stacje oznaczono żółtymi i czerwonymi punktami na mapie.

Najedź kursorem aby zobaczyć nazwę stacji.

Kliknij aby zobaczyć obserwacje i prognozy pogody.

Aby zmienić mapę: kliknij na zielony przycisk z czarnym krzyżykiem, aby powiększyć; na zielony przycisk z myślnikiem, aby pomniejszyć; na zielone strzałki, aby przejść do map sąsiednich.


METAR-TAF: